createdAt,value
2019-02-14T00:00:12.656Z,24.00
2019-02-14T00:01:15.583Z,22.50
2019-02-14T00:02:24.282Z,22.00
2019-02-14T00:03:34.957Z,19.50
2019-02-14T00:04:40.705Z,24.50
2019-02-14T00:05:44.650Z,26.00
2019-02-14T00:06:47.834Z,28.50
2019-02-14T00:07:50.691Z,27.00
2019-02-14T00:08:53.731Z,29.00
2019-02-14T00:09:56.538Z,28.00
2019-02-14T00:10:59.326Z,26.00
2019-02-14T00:12:02.144Z,26.50
2019-02-14T00:13:05.007Z,19.00
2019-02-14T00:14:08.260Z,28.50
2019-02-14T00:15:11.070Z,26.00
2019-02-14T00:16:16.291Z,28.50
2019-02-14T00:17:19.533Z,23.50
2019-02-14T00:18:22.664Z,25.00
2019-02-14T00:19:25.588Z,32.00
2019-02-14T00:20:29.503Z,28.00
2019-02-14T00:21:32.318Z,29.00
2019-02-14T00:22:36.446Z,27.00
2019-02-14T00:23:39.353Z,27.00
2019-02-14T00:24:45.445Z,29.00
2019-02-14T00:25:48.287Z,21.50
2019-02-14T00:26:51.091Z,27.50
2019-02-14T00:27:54.766Z,26.50
2019-02-14T00:28:57.656Z,30.50
2019-02-14T00:30:00.554Z,28.00
2019-02-14T00:31:09.917Z,29.00
2019-02-14T00:32:12.485Z,27.50
2019-02-14T00:33:15.277Z,24.00
2019-02-14T00:34:18.551Z,27.00
2019-02-14T00:35:25.016Z,30.00
2019-02-14T00:36:25.812Z,26.00
2019-02-14T00:37:28.904Z,28.00
2019-02-14T00:38:31.737Z,27.00
2019-02-14T00:39:34.623Z,28.50
2019-02-14T00:40:37.423Z,28.00
2019-02-14T00:41:40.230Z,28.00
2019-02-14T00:42:45.325Z,23.00
2019-02-14T00:43:49.046Z,26.00
2019-02-14T00:44:53.665Z,24.50
2019-02-14T00:45:59.196Z,29.00
2019-02-14T00:47:01.985Z,26.00
2019-02-14T00:48:04.818Z,29.50
2019-02-14T00:49:07.722Z,24.00
2019-02-14T00:50:10.808Z,26.00
2019-02-14T00:51:13.689Z,24.00
2019-02-14T00:52:16.489Z,20.00
2019-02-14T00:53:19.331Z,24.00
2019-02-14T00:54:22.187Z,23.00
2019-02-14T00:55:24.984Z,22.00
2019-02-14T00:56:28.093Z,24.50
2019-02-14T00:57:32.546Z,19.00
2019-02-14T00:58:38.910Z,22.00
2019-02-14T00:59:41.713Z,20.00
2019-02-14T01:00:47.064Z,22.00
2019-02-14T01:01:50.276Z,23.00
2019-02-14T01:02:56.127Z,21.00
2019-02-14T01:03:58.966Z,17.50
2019-02-14T01:05:06.184Z,19.50
2019-02-14T01:06:09.022Z,22.50
2019-02-14T01:07:11.820Z,21.00
2019-02-14T01:08:14.606Z,22.00
2019-02-14T01:09:17.791Z,20.50
2019-02-14T01:10:20.671Z,22.00
2019-02-14T01:11:23.524Z,23.00
2019-02-14T01:12:26.327Z,24.00
2019-02-14T01:13:29.121Z,24.50
2019-02-14T01:14:32.099Z,24.00
2019-02-14T01:15:36.132Z,20.00
2019-02-14T01:16:39.395Z,18.00
2019-02-14T01:17:42.203Z,20.00
2019-02-14T01:18:45.017Z,24.00
2019-02-14T01:19:47.917Z,20.50
2019-02-14T01:20:50.739Z,26.00
2019-02-14T01:21:55.059Z,25.50
2019-02-14T01:22:57.880Z,27.50
2019-02-14T01:24:00.704Z,26.00
2019-02-14T01:25:03.581Z,22.00
2019-02-14T01:26:06.388Z,22.50
2019-02-14T01:27:09.205Z,27.00
2019-02-14T01:28:12.328Z,21.50
2019-02-14T01:29:15.148Z,25.00
2019-02-14T01:30:18.072Z,25.50
2019-02-14T01:31:24.847Z,20.00
2019-02-14T01:32:27.664Z,20.00
2019-02-14T01:33:30.469Z,22.50
2019-02-14T01:34:34.733Z,22.50
2019-02-14T01:35:42.003Z,16.50
2019-02-14T01:36:42.111Z,18.00
2019-02-14T01:37:44.976Z,20.50
2019-02-14T01:38:47.797Z,24.00
2019-02-14T01:39:53.038Z,19.50
2019-02-14T01:40:56.153Z,24.00
2019-02-14T01:42:00.825Z,21.00
2019-02-14T01:43:03.638Z,20.00
2019-02-14T01:44:13.135Z,23.00
2019-02-14T01:45:23.566Z,20.00
2019-02-14T01:46:31.117Z,18.50
2019-02-14T01:47:35.491Z,22.00
2019-02-14T01:48:41.393Z,22.50
2019-02-14T01:49:44.397Z,19.50
2019-02-14T01:50:47.198Z,21.00
2019-02-14T01:51:52.345Z,22.50
2019-02-14T01:52:55.440Z,18.00
2019-02-14T01:53:58.236Z,22.00
2019-02-14T01:55:01.080Z,28.00
2019-02-14T01:56:03.970Z,26.00
2019-02-14T01:57:07.645Z,21.00
2019-02-14T01:58:10.526Z,24.50
2019-02-14T01:59:16.502Z,18.50
2019-02-14T02:00:19.356Z,18.50
2019-02-14T02:01:22.223Z,21.00
2019-02-14T02:02:25.444Z,19.50
2019-02-14T02:03:31.015Z,19.50
2019-02-14T02:04:33.832Z,18.00
2019-02-14T02:05:37.653Z,20.00
2019-02-14T02:06:42.737Z,18.00
2019-02-14T02:07:45.524Z,18.50
2019-02-14T02:08:48.385Z,18.00
2019-02-14T02:09:58.349Z,19.00
2019-02-14T02:11:04.221Z,22.00
2019-02-14T02:12:07.367Z,16.00
2019-02-14T02:13:10.175Z,18.00
2019-02-14T02:14:12.976Z,19.50
2019-02-14T02:15:15.949Z,17.00
2019-02-14T02:16:19.060Z,20.50
2019-02-14T02:17:21.985Z,20.50
2019-02-14T02:18:25.784Z,17.50
2019-02-14T02:19:28.673Z,20.00
2019-02-14T02:20:33.538Z,20.00
2019-02-14T02:21:39.635Z,16.00
2019-02-14T02:22:42.470Z,16.50
2019-02-14T02:23:45.257Z,14.00
2019-02-14T02:24:48.342Z,16.50
2019-02-14T02:25:51.394Z,19.00
2019-02-14T02:26:54.315Z,16.00
2019-02-14T02:28:01.238Z,17.00
2019-02-14T02:29:04.114Z,19.00
2019-02-14T02:30:06.960Z,19.00
2019-02-14T02:31:10.051Z,18.50
2019-02-14T02:32:12.910Z,18.00
2019-02-14T02:33:15.810Z,20.00
2019-02-14T02:34:18.638Z,17.00
2019-02-14T02:35:21.424Z,20.00
2019-02-14T02:36:24.222Z,14.00
2019-02-14T02:37:27.389Z,21.50
2019-02-14T02:38:39.740Z,21.50
2019-02-14T02:39:44.278Z,14.00
2019-02-14T02:40:49.318Z,18.00
2019-02-14T02:41:55.206Z,14.50
2019-02-14T02:42:59.578Z,19.50
2019-02-14T02:44:02.706Z,18.00
2019-02-14T02:45:05.544Z,18.50
2019-02-14T02:46:08.338Z,18.00
2019-02-14T02:47:11.258Z,16.00
2019-02-14T02:48:14.072Z,20.00
2019-02-14T02:49:16.869Z,19.50
2019-02-14T02:50:19.960Z,16.00
2019-02-14T02:51:23.193Z,17.00
2019-02-14T02:52:26.866Z,19.50
2019-02-14T02:53:30.789Z,17.00
2019-02-14T02:54:36.003Z,20.00
2019-02-14T02:55:38.842Z,19.50
2019-02-14T02:56:41.925Z,22.00
2019-02-14T02:57:44.821Z,25.50
2019-02-14T02:58:48.701Z,14.50
2019-02-14T02:59:54.028Z,18.00
2019-02-14T03:00:56.828Z,23.00
2019-02-14T03:02:02.160Z,22.50
2019-02-14T03:03:08.011Z,16.00
2019-02-14T03:04:10.898Z,18.00
2019-02-14T03:05:13.747Z,17.00
2019-02-14T03:06:16.950Z,13.00
2019-02-14T03:07:19.828Z,17.00
2019-02-14T03:08:23.046Z,15.00
2019-02-14T03:09:26.163Z,19.50
2019-02-14T03:10:28.959Z,17.00
2019-02-14T03:11:32.066Z,17.00
2019-02-14T03:12:35.280Z,18.00
2019-02-14T03:13:38.145Z,18.00
2019-02-14T03:14:40.988Z,15.00
2019-02-14T03:15:44.089Z,18.50
2019-02-14T03:16:46.904Z,18.50
2019-02-14T03:17:49.801Z,15.50
2019-02-14T03:18:52.699Z,16.00
2019-02-14T03:19:55.529Z,14.50
2019-02-14T03:20:58.408Z,18.00
2019-02-14T03:22:01.506Z,17.50
2019-02-14T03:23:04.338Z,20.00
2019-02-14T03:24:07.633Z,16.00
2019-02-14T03:25:10.450Z,17.00
2019-02-14T03:26:13.269Z,17.00
2019-02-14T03:27:16.137Z,21.00
2019-02-14T03:28:19.253Z,18.50
2019-02-14T03:29:22.018Z,16.50
2019-02-14T03:30:24.827Z,15.50
2019-02-14T03:31:27.669Z,14.00
2019-02-14T03:32:30.578Z,18.00
2019-02-14T03:33:33.418Z,17.00
2019-02-14T03:34:36.569Z,18.00
2019-02-14T03:35:39.513Z,17.50
2019-02-14T03:36:42.324Z,18.00
2019-02-14T03:37:45.707Z,16.00
2019-02-14T03:38:48.529Z,18.50
2019-02-14T03:39:51.351Z,20.00
2019-02-14T03:40:54.196Z,16.00
2019-02-14T03:41:57.041Z,18.00
2019-02-14T03:43:00.369Z,14.00
2019-02-14T03:44:03.203Z,17.00
2019-02-14T03:45:06.109Z,19.00
2019-02-14T03:46:08.986Z,16.00
2019-02-14T03:47:12.139Z,19.50
2019-02-14T03:48:14.950Z,16.00
2019-02-14T03:49:17.856Z,26.00
2019-02-14T03:50:21.126Z,28.00
2019-02-14T03:51:27.159Z,25.50
2019-02-14T03:52:33.016Z,25.50
2019-02-14T03:53:35.959Z,26.00
2019-02-14T03:54:38.790Z,29.00
2019-02-14T03:55:41.644Z,27.50
2019-02-14T03:56:44.924Z,23.00
2019-02-14T03:57:47.787Z,24.00
2019-02-14T03:58:51.003Z,18.00
2019-02-14T03:59:53.815Z,18.50
2019-02-14T04:00:56.659Z,20.50
2019-02-14T04:01:59.549Z,20.00
2019-02-14T04:03:02.741Z,16.00
2019-02-14T04:04:06.714Z,17.00
2019-02-14T04:05:09.610Z,17.00
2019-02-14T04:06:14.748Z,20.00
2019-02-14T04:07:17.570Z,18.00
2019-02-14T04:08:20.891Z,19.50
2019-02-14T04:09:24.202Z,16.00
2019-02-14T04:10:27.340Z,18.00
2019-02-14T04:11:30.272Z,17.00
2019-02-14T04:12:35.645Z,19.00
2019-02-14T04:13:38.972Z,17.00
2019-02-14T04:14:41.894Z,20.50
2019-02-14T04:15:44.697Z,17.50
2019-02-14T04:16:47.999Z,15.00
2019-02-14T04:17:50.835Z,16.50
2019-02-14T04:18:53.639Z,26.50
2019-02-14T04:19:56.576Z,28.00
2019-02-14T04:20:59.388Z,28.00
2019-02-14T04:22:02.223Z,24.50
2019-02-14T04:23:10.921Z,23.00
2019-02-14T04:24:15.226Z,28.00
2019-02-14T04:25:18.097Z,25.00
2019-02-14T04:26:21.003Z,23.50
2019-02-14T04:27:23.842Z,24.00
2019-02-14T04:28:26.660Z,20.00
2019-02-14T04:29:29.924Z,20.50
2019-02-14T04:30:32.742Z,21.50
2019-02-14T04:31:35.653Z,19.00
2019-02-14T04:32:38.481Z,18.00
2019-02-14T04:33:41.355Z,16.50
2019-02-14T04:34:47.234Z,16.00
2019-02-14T04:35:53.307Z,19.50
2019-02-14T04:36:56.154Z,19.50
2019-02-14T04:37:58.988Z,18.00
2019-02-14T04:39:01.850Z,18.00
2019-02-14T04:40:04.763Z,16.00
2019-02-14T04:41:07.674Z,18.00
2019-02-14T04:42:11.099Z,19.00
2019-02-14T04:43:15.940Z,19.50
2019-02-14T04:44:18.774Z,15.00
2019-02-14T04:45:22.024Z,18.00
2019-02-14T04:46:24.924Z,16.00
2019-02-14T04:47:27.784Z,13.50
2019-02-14T04:48:31.004Z,15.50
2019-02-14T04:49:36.814Z,14.00
2019-02-14T04:50:39.646Z,14.50
2019-02-14T04:51:42.528Z,16.50
2019-02-14T04:52:45.381Z,16.00
2019-02-14T04:53:48.209Z,14.50
2019-02-14T04:54:53.098Z,14.50
2019-02-14T04:55:56.016Z,20.50
2019-02-14T04:56:58.875Z,15.50
2019-02-14T04:58:01.853Z,17.50
2019-02-14T04:59:04.692Z,14.00
2019-02-14T05:00:07.522Z,16.50
2019-02-14T05:01:11.249Z,19.00
2019-02-14T05:02:14.185Z,12.50
2019-02-14T05:03:17.110Z,12.00
2019-02-14T05:04:19.970Z,18.00
2019-02-14T05:05:22.787Z,14.00
2019-02-14T05:06:25.594Z,13.00
2019-02-14T05:07:31.609Z,13.50
2019-02-14T05:08:37.235Z,13.50
2019-02-14T05:09:40.152Z,13.50
2019-02-14T05:10:42.978Z,12.00
2019-02-14T05:11:45.793Z,15.50
2019-02-14T05:12:48.646Z,15.00
2019-02-14T05:13:54.614Z,10.00
2019-02-14T05:14:57.490Z,14.00
2019-02-14T05:16:00.322Z,15.50
2019-02-14T05:17:03.155Z,14.00
2019-02-14T05:18:06.079Z,20.00
2019-02-14T05:19:08.942Z,18.00
2019-02-14T05:20:12.149Z,12.50
2019-02-14T05:21:15.009Z,14.00
2019-02-14T05:22:17.831Z,17.00
2019-02-14T05:23:20.720Z,14.00
2019-02-14T05:24:23.529Z,16.00
2019-02-14T05:25:26.387Z,18.00
2019-02-14T05:26:29.591Z,16.00
2019-02-14T05:27:32.441Z,16.00
2019-02-14T05:28:35.402Z,18.50
2019-02-14T05:29:38.299Z,16.00
2019-02-14T05:30:41.125Z,13.00
2019-02-14T05:31:45.182Z,14.00
2019-02-14T05:32:51.908Z,12.00
2019-02-14T05:33:54.528Z,12.00
2019-02-14T05:34:57.413Z,12.00
2019-02-14T05:36:00.603Z,12.50
2019-02-14T05:37:03.525Z,16.00
2019-02-14T05:38:06.354Z,14.50
2019-02-14T05:39:10.594Z,14.00
2019-02-14T05:40:13.977Z,19.00
2019-02-14T05:41:16.779Z,14.00
2019-02-14T05:42:19.683Z,19.50
2019-02-14T05:43:25.717Z,21.00
2019-02-14T05:44:28.532Z,22.00
2019-02-14T05:45:31.714Z,19.00
2019-02-14T05:46:34.565Z,26.50
2019-02-14T05:47:37.458Z,23.00
2019-02-14T05:48:40.307Z,18.00
2019-02-14T05:49:43.183Z,20.00
2019-02-14T05:50:46.013Z,20.00
2019-02-14T05:51:49.211Z,24.00
2019-02-14T05:52:53.153Z,18.50
2019-02-14T05:53:56.452Z,19.00
2019-02-14T05:54:59.391Z,18.00
2019-02-14T05:56:02.200Z,18.50
2019-02-14T05:57:05.051Z,16.00
2019-02-14T05:58:08.258Z,16.00
2019-02-14T05:59:11.087Z,15.00
2019-02-14T06:00:13.991Z,20.00
2019-02-14T06:01:18.935Z,12.00
2019-02-14T06:02:21.769Z,14.50
2019-02-14T06:03:24.607Z,14.50
2019-02-14T06:04:27.920Z,15.00
2019-02-14T06:05:30.864Z,19.50
2019-02-14T06:06:34.479Z,13.50
2019-02-14T06:07:37.345Z,14.50
2019-02-14T06:08:40.248Z,16.50
2019-02-14T06:09:43.167Z,15.50
2019-02-14T06:10:46.304Z,14.50
2019-02-14T06:11:53.192Z,14.00
2019-02-14T06:12:56.116Z,14.00
2019-02-14T06:13:58.965Z,20.50
2019-02-14T06:15:01.766Z,21.00
2019-02-14T06:16:05.258Z,27.50
2019-02-14T06:17:09.730Z,25.00
2019-02-14T06:18:12.585Z,21.50
2019-02-14T06:19:15.414Z,32.50
2019-02-14T06:20:18.272Z,32.00
2019-02-14T06:21:21.191Z,28.00
2019-02-14T06:22:24.043Z,24.50
2019-02-14T06:23:27.265Z,24.50
2019-02-14T06:24:30.164Z,18.50
2019-02-14T06:25:35.573Z,17.50
2019-02-14T06:26:44.281Z,14.00
2019-02-14T06:27:47.203Z,12.50
2019-02-14T06:28:52.687Z,14.50
2019-02-14T06:29:56.095Z,15.50
2019-02-14T06:43:48.626Z,15.50
2019-02-14T06:44:51.559Z,15.00
2019-02-14T06:45:54.484Z,11.50
2019-02-14T06:47:02.325Z,12.00
2019-02-14T06:48:05.312Z,12.00
2019-02-14T06:49:08.735Z,14.50
2019-02-14T06:50:12.635Z,13.50
2019-02-14T06:51:24.541Z,12.00
2019-02-14T06:52:28.294Z,13.50
2019-02-14T06:53:31.194Z,14.00
2019-02-14T06:54:34.058Z,14.00
2019-02-14T06:55:38.268Z,12.50
2019-02-14T06:56:43.125Z,11.00
2019-02-14T06:57:45.992Z,11.00
2019-02-14T06:58:48.901Z,12.50
2019-02-14T06:59:54.469Z,20.00
2019-02-14T07:00:57.312Z,16.00
2019-02-14T07:02:00.493Z,17.00
2019-02-14T07:03:03.388Z,11.50
2019-02-14T07:04:07.002Z,14.50
2019-02-14T07:05:10.320Z,14.00
2019-02-14T07:06:15.782Z,13.00
2019-02-14T07:07:19.094Z,17.50
2019-02-14T07:08:24.726Z,15.00
2019-02-14T07:09:31.383Z,16.50
2019-02-14T07:10:34.343Z,16.50
2019-02-14T07:11:37.615Z,14.00
2019-02-14T07:12:40.486Z,17.50
2019-02-14T07:13:43.799Z,15.00
2019-02-14T07:14:47.396Z,17.50
2019-02-14T07:15:50.233Z,22.50
2019-02-14T07:16:55.873Z,20.00
2019-02-14T07:17:59.013Z,18.00
2019-02-14T07:19:02.901Z,16.00
2019-02-14T07:20:05.906Z,13.00
2019-02-14T07:21:10.208Z,19.00
2019-02-14T07:22:13.094Z,18.50
2019-02-14T07:23:16.420Z,17.50
2019-02-14T07:24:22.262Z,16.00
2019-02-14T07:25:25.298Z,25.00
2019-02-14T07:26:28.244Z,17.50
2019-02-14T07:27:31.149Z,21.50
2019-02-14T07:28:36.337Z,22.00
2019-02-14T07:29:39.306Z,18.00
2019-02-14T07:30:42.219Z,17.00
2019-02-14T07:31:50.128Z,19.00
2019-02-14T07:32:52.935Z,19.50
2019-02-14T07:33:55.772Z,17.50
2019-02-14T07:35:02.410Z,21.00
2019-02-14T07:36:05.299Z,22.50
2019-02-14T07:37:08.264Z,19.50
2019-02-14T07:38:11.345Z,18.50
2019-02-14T07:39:17.864Z,20.00
2019-02-14T07:40:20.729Z,27.00
2019-02-14T07:41:23.561Z,32.00
2019-02-14T07:42:26.469Z,29.00
2019-02-14T07:43:30.072Z,35.00
2019-02-14T07:44:34.618Z,31.50
2019-02-14T07:45:37.854Z,26.50
2019-02-14T07:46:40.780Z,28.50
2019-02-14T07:47:46.038Z,25.50
2019-02-14T07:48:50.086Z,36.50
2019-02-14T07:49:58.236Z,30.50
2019-02-14T07:51:07.249Z,42.50
2019-02-14T07:52:10.201Z,50.00
2019-02-14T07:53:13.159Z,48.50
2019-02-14T07:54:15.975Z,48.00
2019-02-14T07:55:19.989Z,38.50
2019-02-14T07:56:23.926Z,44.00
2019-02-14T07:57:27.211Z,44.00
2019-02-14T07:58:32.933Z,48.00
2019-02-14T07:59:36.334Z,49.00
2019-02-14T08:00:44.764Z,49.00
2019-02-14T08:01:47.588Z,45.50
2019-02-14T08:02:50.791Z,44.50
2019-02-14T08:03:54.191Z,38.00
2019-02-14T08:04:57.036Z,44.50
2019-02-14T08:06:03.154Z,36.50
2019-02-14T08:07:08.551Z,38.00
2019-02-14T08:08:15.882Z,35.50
2019-02-14T08:09:18.717Z,36.00
2019-02-14T08:10:22.236Z,36.00
2019-02-14T08:11:25.618Z,33.00
2019-02-14T08:12:28.464Z,27.50
2019-02-14T08:13:31.579Z,23.00
2019-02-14T08:14:34.559Z,22.50
2019-02-14T08:15:37.447Z,22.50
2019-02-14T08:16:40.613Z,19.00
2019-02-14T08:17:43.554Z,20.00
2019-02-14T08:18:48.252Z,22.00
2019-02-14T08:19:53.754Z,24.50
2019-02-14T08:20:56.727Z,27.50
2019-02-14T08:22:02.182Z,24.00
2019-02-14T08:23:05.567Z,28.00
2019-02-14T08:24:12.577Z,29.00
2019-02-14T08:27:22.802Z,20.00
2019-02-14T08:28:29.140Z,16.50
2019-02-14T08:29:32.691Z,20.00
2019-02-14T08:30:35.587Z,19.00
2019-02-14T08:31:38.459Z,23.00
2019-02-14T08:32:41.841Z,17.75
2019-02-14T08:33:47.009Z,23.00
2019-02-14T08:34:56.220Z,21.00
2019-02-14T08:35:57.566Z,14.00
2019-02-14T08:37:00.372Z,20.75
2019-02-14T08:38:09.109Z,17.00
2019-02-14T08:39:16.836Z,20.00
2019-02-14T08:40:21.831Z,24.00
2019-02-14T08:41:28.247Z,20.00
2019-02-14T08:42:51.385Z,19.50
2019-02-14T08:43:54.274Z,14.00
2019-02-14T08:44:57.893Z,16.00
2019-02-14T08:46:05.500Z,17.75
2019-02-14T08:47:13.190Z,22.75
2019-02-14T08:55:49.471Z,13.75
2019-02-14T08:56:52.282Z,12.50
2019-02-14T08:57:55.122Z,15.50
2019-02-14T08:58:58.674Z,15.00
2019-02-14T09:00:06.657Z,16.75
2019-02-14T09:01:13.490Z,16.75
2019-02-14T09:02:16.417Z,13.00
2019-02-14T09:03:19.445Z,15.25
2019-02-14T09:04:28.168Z,16.00
2019-02-14T09:05:33.987Z,19.25
2019-02-14T09:06:36.906Z,18.50
2019-02-14T09:07:40.031Z,21.00
2019-02-14T09:08:47.834Z,28.50
2019-02-14T09:09:54.497Z,21.75
2019-02-14T09:10:57.337Z,19.25
2019-02-14T09:12:04.942Z,18.00
2019-02-14T09:13:16.951Z,19.25
2019-02-14T09:14:18.150Z,19.00
2019-02-14T09:15:21.750Z,23.50
2019-02-14T09:18:02.349Z,23.00
2019-02-14T09:19:08.261Z,21.75
2019-02-14T09:20:14.289Z,30.50
2019-02-14T09:21:17.342Z,28.25
2019-02-14T09:22:23.518Z,27.00
2019-02-14T09:23:26.346Z,22.25
2019-02-14T09:24:29.267Z,20.50
2019-02-14T09:25:35.131Z,17.50
2019-02-14T09:26:38.909Z,18.00
2019-02-14T09:27:41.746Z,21.00
2019-02-14T09:28:45.936Z,26.50
2019-02-14T09:29:49.574Z,25.75
2019-02-14T09:30:52.405Z,24.25
2019-02-14T09:31:58.338Z,27.75
2019-02-14T09:33:01.523Z,26.25
2019-02-14T09:34:06.254Z,27.75
2019-02-14T09:35:10.213Z,31.00
2019-02-14T09:36:16.190Z,26.25
2019-02-14T09:37:19.028Z,28.00
2019-02-14T09:38:23.344Z,26.50
2019-02-14T09:39:28.286Z,24.50
2019-02-14T09:40:31.174Z,19.75
2019-02-14T09:41:34.456Z,19.75
2019-02-14T09:42:37.285Z,29.25
2019-02-14T09:43:41.729Z,27.00
2019-02-14T09:44:46.848Z,28.25
2019-02-14T09:45:49.650Z,33.25
2019-02-14T09:46:53.610Z,37.00
2019-02-14T09:47:58.025Z,33.25
2019-02-14T09:49:01.314Z,33.00
2019-02-14T09:50:06.955Z,30.50
2019-02-14T09:51:12.465Z,29.25
2019-02-14T09:52:15.683Z,31.00
2019-02-14T09:53:34.167Z,29.25
2019-02-14T09:54:25.138Z,33.00
2019-02-14T09:55:32.119Z,32.75
2019-02-14T09:56:36.633Z,37.25
2019-02-14T09:57:42.908Z,37.25
2019-02-14T09:58:45.926Z,31.50
2019-02-14T09:59:49.949Z,38.75
2019-02-14T10:00:54.204Z,41.00
2019-02-14T10:01:57.053Z,34.50
2019-02-14T10:02:59.874Z,40.75
2019-02-14T10:04:03.167Z,36.50
2019-02-14T10:05:06.013Z,31.25
2019-02-14T10:06:08.870Z,37.25
2019-02-14T10:07:12.173Z,37.25
2019-02-14T10:08:16.536Z,38.00
2019-02-14T10:09:19.423Z,36.75
2019-02-14T10:10:35.305Z,36.75
2019-02-14T10:11:38.265Z,39.00
2019-02-14T10:12:41.560Z,33.75
2019-02-14T10:13:46.274Z,36.00
2019-02-14T10:14:49.423Z,38.00
2019-02-14T10:15:52.412Z,30.25
2019-02-14T10:16:55.644Z,38.50
2019-02-14T10:17:58.499Z,38.50
2019-02-14T10:19:01.876Z,35.75
2019-02-14T10:20:04.708Z,35.25
2019-02-14T10:21:07.595Z,35.25
2019-02-14T10:22:10.880Z,30.75
2019-02-14T10:23:17.187Z,32.00
2019-02-14T10:24:20.104Z,30.00
2019-02-14T10:25:23.981Z,29.75
2019-02-14T10:26:28.237Z,28.75
2019-02-14T10:27:31.058Z,29.50
2019-02-14T10:28:33.885Z,30.75
2019-02-14T10:29:39.762Z,26.25
2019-02-14T10:30:42.647Z,26.50
2019-02-14T10:31:45.616Z,27.00
2019-02-14T10:32:48.457Z,28.00
2019-02-14T10:33:51.306Z,27.00
2019-02-14T10:34:55.677Z,27.00
2019-02-14T10:35:59.373Z,26.75
2019-02-14T10:37:02.211Z,30.00
2019-02-14T10:38:07.605Z,25.75
2019-02-14T10:39:12.005Z,28.75
2019-02-14T10:40:15.772Z,25.75
2019-02-14T10:41:18.806Z,28.75
2019-02-14T10:42:24.338Z,24.75
2019-02-14T10:43:33.188Z,33.25
2019-02-14T10:44:33.928Z,31.75
2019-02-14T10:45:39.046Z,31.00
2019-02-14T10:46:42.422Z,31.25
2019-02-14T10:47:45.303Z,37.50
2019-02-14T10:48:51.049Z,32.25
2019-02-14T10:49:58.291Z,35.75
2019-02-14T10:51:05.327Z,36.25
2019-02-14T10:52:12.153Z,33.75
2019-02-14T10:53:15.032Z,31.00
2019-02-14T10:54:18.009Z,32.25
2019-02-14T10:55:21.222Z,37.00
2019-02-14T10:56:24.807Z,37.50
2019-02-14T10:57:31.450Z,33.75
2019-02-14T10:58:35.099Z,36.00
2019-02-14T10:59:37.914Z,39.00
2019-02-14T11:00:41.260Z,37.75
2019-02-14T11:01:45.146Z,39.25
2019-02-14T11:02:50.812Z,38.50
2019-02-14T11:03:54.557Z,38.50
2019-02-14T11:05:02.615Z,38.75
2019-02-14T11:06:12.902Z,40.25
2019-02-14T11:07:15.841Z,36.50
2019-02-14T11:08:20.760Z,37.25
2019-02-14T11:09:25.838Z,33.00
2019-02-14T11:10:29.508Z,38.50
2019-02-14T11:11:33.593Z,39.00
2019-02-14T11:12:41.549Z,39.25
2019-02-14T11:13:42.610Z,36.50
2019-02-14T11:14:45.880Z,34.75
2019-02-14T11:15:53.132Z,33.00
2019-02-14T11:16:53.414Z,33.00
2019-02-14T11:17:56.254Z,34.75
2019-02-14T11:19:01.509Z,32.25
2019-02-14T11:20:04.973Z,36.75
2019-02-14T11:21:11.691Z,35.50
2019-02-14T11:22:14.598Z,38.50
2019-02-14T11:23:18.071Z,37.75
2019-02-14T11:24:23.583Z,34.75
2019-02-14T11:25:26.495Z,40.25
2019-02-14T11:26:29.342Z,33.50
2019-02-14T11:27:33.017Z,35.25
2019-02-14T11:28:36.121Z,38.50
2019-02-14T11:29:38.975Z,36.50
2019-02-14T11:42:50.267Z,37.75
2019-02-14T11:43:54.915Z,38.50
2019-02-14T11:45:02.361Z,38.00
2019-02-14T11:46:05.477Z,35.75
2019-02-14T11:47:11.050Z,40.50
2019-02-14T11:48:16.089Z,37.00
2019-02-14T11:49:18.948Z,39.25
2019-02-14T11:50:22.893Z,34.75
2019-02-14T11:51:25.869Z,39.25
2019-02-14T11:52:37.903Z,39.50
2019-02-14T11:53:41.254Z,40.25
2019-02-14T11:54:50.440Z,39.50
2019-02-14T11:55:55.950Z,36.50
2019-02-14T11:57:00.271Z,34.25
2019-02-14T11:58:06.111Z,39.00
2019-02-14T11:59:09.378Z,34.75
2019-02-14T12:00:13.888Z,34.25
2019-02-14T12:01:16.954Z,34.50
2019-02-14T12:02:21.919Z,35.25
2019-02-14T12:03:30.439Z,34.75
2019-02-14T12:04:33.315Z,38.00
2019-02-14T12:05:41.744Z,31.25
2019-02-14T12:06:45.500Z,30.25
2019-02-14T12:07:52.924Z,32.00
2019-02-14T12:09:00.335Z,33.00
2019-02-14T12:10:13.486Z,32.50
2019-02-14T12:11:12.732Z,30.75
2019-02-14T12:12:17.225Z,35.00
2019-02-14T12:13:20.537Z,34.00
2019-02-14T12:14:26.653Z,32.25
2019-02-14T12:15:36.674Z,31.50
2019-02-14T12:16:40.195Z,34.50
2019-02-14T12:17:45.285Z,31.00
2019-02-14T12:18:49.543Z,44.75
2019-02-14T12:19:52.444Z,38.25
2019-02-14T12:20:55.428Z,33.50
2019-02-14T12:21:58.319Z,29.25
2019-02-14T12:23:01.203Z,29.75
2019-02-14T12:24:06.295Z,34.75
2019-02-14T12:25:13.718Z,32.00
2019-02-14T12:26:16.663Z,31.50
2019-02-14T12:27:19.556Z,31.00
2019-02-14T12:28:22.472Z,30.00
2019-02-14T12:29:25.329Z,35.25
2019-02-14T12:30:28.653Z,33.75
2019-02-14T12:31:34.294Z,30.25
2019-02-14T12:32:37.801Z,26.00
2019-02-14T12:33:43.584Z,33.25
2019-02-14T12:34:46.484Z,32.00
2019-02-14T12:35:49.431Z,31.50
2019-02-14T12:36:59.010Z,28.00
2019-02-14T12:38:03.512Z,34.00
2019-02-14T12:39:14.257Z,27.75
2019-02-14T12:40:17.508Z,26.50
2019-02-14T12:41:20.334Z,27.50
2019-02-14T12:42:25.850Z,28.75
2019-02-14T12:43:31.293Z,28.75
2019-02-14T12:44:40.071Z,27.25
2019-02-14T12:45:47.175Z,34.00
2019-02-14T12:46:52.017Z,33.25
2019-02-14T12:47:54.863Z,28.25
2019-02-14T12:49:01.287Z,28.75
2019-02-14T12:50:04.237Z,27.25
2019-02-14T12:51:10.183Z,27.25
2019-02-14T12:52:13.330Z,29.75
2019-02-14T12:53:16.295Z,28.00
2019-02-14T12:54:19.589Z,29.50
2019-02-14T12:55:23.311Z,29.75
2019-02-14T12:56:26.188Z,28.00
2019-02-14T12:57:29.027Z,30.00
2019-02-14T12:58:32.202Z,30.75
2019-02-14T12:59:35.112Z,32.75
2019-02-14T13:00:40.746Z,30.50
2019-02-14T13:01:43.989Z,32.75
2019-02-14T13:02:48.495Z,27.50
2019-02-14T13:03:55.182Z,29.75
2019-02-14T13:04:58.361Z,27.25
2019-02-14T13:06:07.085Z,31.75
2019-02-14T13:07:10.354Z,30.75
2019-02-14T13:08:13.732Z,27.75
2019-02-14T13:09:20.119Z,30.00
2019-02-14T13:10:21.461Z,28.75
2019-02-14T13:11:24.393Z,31.75
2019-02-14T13:12:27.409Z,30.25
2019-02-14T13:13:33.140Z,42.25
2019-02-14T13:14:36.401Z,39.50
2019-02-14T13:15:41.556Z,46.00
2019-02-14T13:16:44.085Z,44.00
2019-02-14T13:17:49.414Z,29.00
2019-02-14T13:18:52.311Z,30.50
2019-02-14T13:19:57.016Z,31.75
2019-02-14T13:21:00.186Z,31.00
2019-02-14T13:22:03.068Z,30.50
2019-02-14T13:23:14.731Z,32.75
2019-02-14T13:24:21.129Z,23.00
2019-02-14T13:25:25.131Z,23.50
2019-02-14T13:26:33.207Z,20.25
2019-02-14T13:27:36.714Z,26.50
2019-02-14T13:28:39.670Z,25.50
2019-02-14T13:29:42.636Z,24.25
2019-02-14T13:30:49.594Z,25.50
2019-02-14T13:31:55.948Z,21.50
2019-02-14T13:32:58.828Z,24.50
2019-02-14T13:34:04.851Z,22.50
2019-02-14T13:35:07.830Z,24.00
2019-02-14T13:36:13.133Z,23.00
2019-02-14T13:37:16.156Z,21.75
2019-02-14T13:38:19.223Z,19.50
2019-02-14T13:39:29.362Z,19.75
2019-02-14T13:40:28.913Z,21.00
2019-02-14T13:41:31.760Z,20.00
2019-02-14T13:42:34.615Z,20.00
2019-02-14T13:43:38.590Z,19.75
2019-02-14T13:44:43.028Z,19.25
2019-02-14T13:45:46.635Z,18.00
2019-02-14T13:46:52.345Z,17.50
2019-02-14T13:48:00.978Z,17.00
2019-02-14T13:49:04.705Z,18.00
2019-02-14T13:50:07.544Z,18.75
2019-02-14T13:51:10.442Z,18.25
2019-02-14T13:52:13.876Z,19.75
2019-02-14T13:53:16.786Z,18.75
2019-02-14T13:54:19.726Z,17.50
2019-02-14T13:55:22.547Z,16.00
2019-02-14T13:56:28.614Z,19.75
2019-02-14T13:57:37.399Z,16.50
2019-02-14T13:58:43.410Z,14.00
2019-02-14T13:59:46.489Z,17.50
2019-02-14T14:00:49.434Z,16.25
2019-02-14T14:01:52.281Z,19.50
2019-02-14T14:02:58.313Z,17.00
2019-02-14T14:04:00.589Z,15.50
2019-02-14T14:05:03.568Z,17.00
2019-02-14T14:06:12.067Z,16.25
2019-02-14T14:07:13.708Z,15.75
2019-02-14T14:08:16.716Z,17.75
2019-02-14T14:09:23.789Z,15.50
2019-02-14T14:10:26.886Z,20.25
2019-02-14T14:11:33.173Z,18.25
2019-02-14T14:12:39.207Z,16.50
2019-02-14T14:13:48.293Z,18.50
2019-02-14T14:14:56.303Z,19.75
2019-02-14T14:15:59.200Z,16.25
2019-02-14T14:17:02.089Z,17.25
2019-02-14T14:18:05.881Z,18.00
2019-02-14T14:19:15.529Z,15.75
2019-02-14T14:20:26.044Z,16.75